createdAt,value
2023-04-16T00:01:19.681Z,21.95
2023-04-16T00:04:04.784Z,19.25
2023-04-16T00:06:49.914Z,19.67
2023-04-16T00:09:35.035Z,19.92
2023-04-16T00:12:20.266Z,20.15
2023-04-16T00:15:06.044Z,19.00
2023-04-16T00:17:50.932Z,19.73
2023-04-16T00:20:35.687Z,20.95
2023-04-16T00:23:21.193Z,19.65
2023-04-16T00:26:06.192Z,19.63
2023-04-16T00:28:52.046Z,19.75
2023-04-16T00:31:36.901Z,20.05
2023-04-16T00:34:22.124Z,20.55
2023-04-16T00:37:07.082Z,19.70
2023-04-16T00:39:52.269Z,20.67
2023-04-16T00:42:37.984Z,19.17
2023-04-16T00:45:22.792Z,21.25
2023-04-16T00:48:07.738Z,19.05
2023-04-16T00:50:54.954Z,19.75
2023-04-16T00:53:40.582Z,20.13
2023-04-16T00:56:25.667Z,20.48
2023-04-16T00:59:11.813Z,18.77
2023-04-16T01:01:56.980Z,19.17
2023-04-16T01:04:42.723Z,19.95
2023-04-16T01:07:27.565Z,20.48
2023-04-16T01:10:12.704Z,19.42
2023-04-16T01:12:58.237Z,18.52
2023-04-16T01:15:43.518Z,18.02
2023-04-16T01:18:28.280Z,19.63
2023-04-16T01:21:13.536Z,18.88
2023-04-16T01:24:02.493Z,19.40
2023-04-16T01:26:48.613Z,20.73
2023-04-16T01:29:34.733Z,19.73
2023-04-16T01:32:19.891Z,18.90
2023-04-16T01:35:05.441Z,20.38
2023-04-16T01:37:51.316Z,20.23
2023-04-16T01:40:37.411Z,19.83
2023-04-16T01:43:22.583Z,19.98
2023-04-16T01:46:29.632Z,18.25
2023-04-16T01:49:15.686Z,18.73
2023-04-16T01:52:01.070Z,17.95
2023-04-16T01:54:46.097Z,18.52
2023-04-16T01:57:31.600Z,18.75
2023-04-16T02:00:16.852Z,19.15
2023-04-16T02:03:01.986Z,19.98
2023-04-16T02:05:47.373Z,17.52
2023-04-16T02:08:32.496Z,18.00
2023-04-16T02:11:18.011Z,18.65
2023-04-16T02:14:02.748Z,18.25
2023-04-16T02:16:48.101Z,20.15
2023-04-16T02:19:33.254Z,19.95
2023-04-16T02:22:18.604Z,18.75
2023-04-16T02:25:03.700Z,20.88
2023-04-16T02:27:49.266Z,20.40
2023-04-16T02:30:36.507Z,21.20
2023-04-16T02:33:22.548Z,17.38
2023-04-16T02:36:07.533Z,20.48
2023-04-16T02:38:53.280Z,18.92
2023-04-16T02:41:38.536Z,18.80
2023-04-16T02:44:23.299Z,18.95
2023-04-16T02:47:08.561Z,18.83
2023-04-16T02:49:53.405Z,19.13
2023-04-16T02:52:38.324Z,18.27
2023-04-16T02:55:23.090Z,17.73
2023-04-16T02:58:08.444Z,18.35
2023-04-16T03:00:54.325Z,17.35
2023-04-16T03:03:39.665Z,18.05
2023-04-16T03:06:24.576Z,18.80
2023-04-16T03:09:09.543Z,18.92
2023-04-16T03:11:55.173Z,18.15
2023-04-16T03:14:42.260Z,17.55
2023-04-16T03:17:27.762Z,18.08
2023-04-16T03:20:12.675Z,18.52
2023-04-16T03:22:57.746Z,18.77
2023-04-16T03:25:44.476Z,18.67
2023-04-16T03:28:30.147Z,18.75
2023-04-16T03:31:15.295Z,18.70
2023-04-16T03:34:00.470Z,17.98
2023-04-16T03:36:45.819Z,17.95
2023-04-16T03:39:31.248Z,18.25
2023-04-16T03:42:16.076Z,17.60
2023-04-16T03:45:01.057Z,17.73
2023-04-16T03:47:48.482Z,17.98
2023-04-16T03:50:33.511Z,18.75
2023-04-16T03:53:18.905Z,18.00
2023-04-16T03:56:03.988Z,18.75
2023-04-16T03:58:49.615Z,17.85
2023-04-16T04:01:34.694Z,16.85
2023-04-16T04:04:20.294Z,16.38
2023-04-16T04:07:05.442Z,17.33
2023-04-16T04:09:50.770Z,19.15
2023-04-16T04:12:36.113Z,18.70
2023-04-16T04:15:21.305Z,17.40
2023-04-16T04:18:06.314Z,17.90
2023-04-16T04:20:52.105Z,18.23
2023-04-16T04:23:37.213Z,19.67
2023-04-16T04:26:22.398Z,18.15
2023-04-16T04:29:07.745Z,18.77
2023-04-16T04:31:53.377Z,18.63
2023-04-16T04:34:38.557Z,17.40
2023-04-16T04:37:23.485Z,17.38
2023-04-16T04:40:09.988Z,19.25
2023-04-16T04:42:54.986Z,18.00
2023-04-16T04:45:41.083Z,17.60
2023-04-16T04:48:27.488Z,17.45
2023-04-16T04:51:13.115Z,17.50
2023-04-16T04:53:58.483Z,17.65
2023-04-16T04:56:45.864Z,18.08
2023-04-16T04:59:31.073Z,18.95
2023-04-16T05:02:16.024Z,20.08
2023-04-16T05:05:01.185Z,18.52
2023-04-16T05:07:46.137Z,17.95
2023-04-16T05:10:31.375Z,17.98
2023-04-16T05:13:16.259Z,17.75
2023-04-16T05:16:01.115Z,18.63
2023-04-16T05:18:45.939Z,18.13
2023-04-16T05:21:31.250Z,20.08
2023-04-16T05:24:16.227Z,19.70
2023-04-16T05:27:01.443Z,18.02
2023-04-16T05:29:46.517Z,17.70
2023-04-16T05:32:31.506Z,17.58
2023-04-16T05:35:17.668Z,18.25
2023-04-16T05:38:04.268Z,16.83
2023-04-16T05:40:49.433Z,17.38
2023-04-16T05:43:34.262Z,16.52
2023-04-16T05:46:19.781Z,17.45
2023-04-16T05:49:04.551Z,18.20
2023-04-16T05:51:50.853Z,18.65
2023-04-16T05:54:36.046Z,17.33
2023-04-16T05:57:20.952Z,17.25
2023-04-16T06:00:06.816Z,15.68
2023-04-16T06:02:52.072Z,16.23
2023-04-16T06:05:37.120Z,17.13
2023-04-16T06:08:21.949Z,16.85
2023-04-16T06:11:07.399Z,17.50
2023-04-16T06:13:53.284Z,16.15
2023-04-16T06:16:38.259Z,15.88
2023-04-16T06:19:23.190Z,17.23
2023-04-16T06:22:07.944Z,17.00
2023-04-16T06:24:53.477Z,16.35
2023-04-16T06:27:38.170Z,15.73
2023-04-16T06:30:23.383Z,15.85
2023-04-16T06:33:08.657Z,16.38
2023-04-16T06:35:53.428Z,15.82
2023-04-16T06:38:38.530Z,15.52
2023-04-16T06:41:25.907Z,14.35
2023-04-16T06:44:10.820Z,17.52
2023-04-16T06:46:56.715Z,16.55
2023-04-16T06:49:41.558Z,15.65
2023-04-16T06:52:26.930Z,15.23
2023-04-16T06:55:11.911Z,15.20
2023-04-16T06:57:57.211Z,16.48
2023-04-16T07:00:43.536Z,15.52
2023-04-16T07:03:28.845Z,15.95
2023-04-16T07:06:14.043Z,15.23
2023-04-16T07:08:59.202Z,15.52
2023-04-16T07:11:45.651Z,15.57
2023-04-16T07:14:30.658Z,15.65
2023-04-16T07:17:15.792Z,15.95
2023-04-16T07:20:00.622Z,14.82
2023-04-16T07:22:45.732Z,15.00
2023-04-16T07:25:33.843Z,15.65
2023-04-16T07:28:18.603Z,15.30
2023-04-16T07:31:04.252Z,15.65
2023-04-16T07:33:49.762Z,14.70
2023-04-16T07:36:34.890Z,14.48
2023-04-16T07:39:19.793Z,16.35
2023-04-16T07:42:04.635Z,15.95
2023-04-16T07:44:49.998Z,16.23
2023-04-16T07:47:35.478Z,15.68
2023-04-16T07:50:20.626Z,16.00
2023-04-16T07:53:08.021Z,15.25
2023-04-16T07:55:53.928Z,15.32
2023-04-16T07:58:39.109Z,15.02
2023-04-16T08:01:23.891Z,15.40
2023-04-16T08:04:09.260Z,15.20
2023-04-16T08:06:54.435Z,14.98
2023-04-16T08:09:48.400Z,15.07
2023-04-16T08:12:33.812Z,14.52
2023-04-16T08:15:18.842Z,14.52
2023-04-16T08:18:06.324Z,16.58
2023-04-16T08:20:51.291Z,14.48
2023-04-16T08:23:36.895Z,14.85
2023-04-16T08:26:21.620Z,15.13
2023-04-16T08:29:07.136Z,16.65
2023-04-16T08:31:53.380Z,16.40
2023-04-16T08:34:38.679Z,16.55
2023-04-16T08:37:25.621Z,15.75
2023-04-16T08:40:11.179Z,17.13
2023-04-16T08:42:59.720Z,15.43
2023-04-16T08:45:48.398Z,15.98
2023-04-16T08:48:34.839Z,14.75
2023-04-16T08:51:22.549Z,16.38
2023-04-16T08:54:12.018Z,15.52
2023-04-16T08:56:58.494Z,15.85
2023-04-16T08:59:47.482Z,14.80
2023-04-16T09:02:33.920Z,13.77
2023-04-16T09:05:21.427Z,15.23
2023-04-16T09:08:06.920Z,15.48
2023-04-16T09:10:53.308Z,15.90
2023-04-16T09:13:38.324Z,15.85
2023-04-16T09:16:25.003Z,15.05
2023-04-16T09:19:12.663Z,14.40
2023-04-16T09:21:57.636Z,16.67
2023-04-16T09:24:43.294Z,14.80
2023-04-16T09:27:30.178Z,15.60
2023-04-16T09:30:25.892Z,15.35
2023-04-16T09:33:24.659Z,15.88
2023-04-16T09:36:10.744Z,14.82
2023-04-16T09:39:00.430Z,14.50
2023-04-16T09:41:47.781Z,15.75
2023-04-16T09:44:37.498Z,15.57
2023-04-16T09:47:23.677Z,17.58
2023-04-16T09:50:13.491Z,15.65
2023-04-16T09:53:02.622Z,15.13
2023-04-16T09:55:47.667Z,15.25
2023-04-16T09:58:36.183Z,14.93
2023-04-16T10:01:23.870Z,15.23
2023-04-16T10:04:11.058Z,16.25
2023-04-16T10:07:06.573Z,14.52
2023-04-16T10:09:53.125Z,15.32
2023-04-16T10:12:38.628Z,14.98
2023-04-16T10:15:23.713Z,14.18
2023-04-16T10:18:09.794Z,14.57
2023-04-16T10:20:55.293Z,15.02
2023-04-16T10:23:40.509Z,15.65
2023-04-16T10:26:26.201Z,15.30
2023-04-16T10:29:13.561Z,14.65
2023-04-16T10:31:59.828Z,16.05
2023-04-16T10:34:47.808Z,15.10
2023-04-16T10:37:33.873Z,14.90
2023-04-16T10:40:23.941Z,15.80
2023-04-16T10:43:11.208Z,15.82
2023-04-16T10:45:56.616Z,16.63
2023-04-16T10:48:49.831Z,14.98
2023-04-16T10:51:37.712Z,14.65
2023-04-16T10:54:28.745Z,14.52
2023-04-16T10:57:20.393Z,13.68
2023-04-16T11:00:22.009Z,13.55
2023-04-16T11:03:07.244Z,14.32
2023-04-16T11:05:52.332Z,14.93
2023-04-16T11:08:53.263Z,14.27
2023-04-16T11:11:39.801Z,14.68
2023-04-16T11:14:26.025Z,13.32
2023-04-16T11:17:11.097Z,14.43
2023-04-16T11:19:59.285Z,13.30
2023-04-16T11:22:47.127Z,12.55
2023-04-16T11:25:34.395Z,12.88
2023-04-16T11:28:20.028Z,13.05
2023-04-16T11:31:12.266Z,13.23
2023-04-16T11:33:57.742Z,13.27
2023-04-16T11:36:51.303Z,13.95
2023-04-16T11:39:51.301Z,12.70
2023-04-16T11:42:45.149Z,13.30
2023-04-16T11:48:21.923Z,13.00
2023-04-16T11:51:07.657Z,13.15
2023-04-16T11:53:53.840Z,12.43
2023-04-16T11:56:52.192Z,12.85
2023-04-16T12:00:02.358Z,12.23
2023-04-16T12:02:47.616Z,11.80
2023-04-16T12:05:39.425Z,11.80
2023-04-16T12:08:33.560Z,11.82
2023-04-16T12:11:18.516Z,10.85
2023-04-16T12:14:08.550Z,11.18
2023-04-16T12:16:53.480Z,11.15
2023-04-16T12:19:52.290Z,12.60
2023-04-16T12:22:39.665Z,10.80
2023-04-16T12:25:24.742Z,10.65
2023-04-16T12:28:10.135Z,17.10
2023-04-16T12:30:57.285Z,10.43
2023-04-16T12:33:42.547Z,10.70
2023-04-16T12:36:28.383Z,10.48
2023-04-16T12:39:15.374Z,11.43
2023-04-16T12:42:01.011Z,9.55
2023-04-16T12:44:48.429Z,9.68
2023-04-16T12:47:37.408Z,9.82
2023-04-16T12:50:22.989Z,10.40
2023-04-16T12:53:08.641Z,10.35
2023-04-16T12:55:55.760Z,10.25
2023-04-16T12:58:41.881Z,10.25
2023-04-16T13:01:27.441Z,10.98
2023-04-16T13:04:12.530Z,9.18
2023-04-16T13:07:00.641Z,8.85
2023-04-16T13:09:48.410Z,8.57
2023-04-16T13:15:20.199Z,7.72
2023-04-16T13:18:08.829Z,8.00
2023-04-16T13:20:54.615Z,7.70
2023-04-16T13:23:40.603Z,8.48
2023-04-16T13:26:26.962Z,7.05
2023-04-16T13:29:12.923Z,8.00
2023-04-16T13:31:59.020Z,8.70
2023-04-16T13:34:46.273Z,8.30
2023-04-16T13:40:16.320Z,8.15
2023-04-16T13:43:03.020Z,6.80
2023-04-16T13:45:48.068Z,7.25
2023-04-16T13:48:35.453Z,9.55
2023-04-16T13:54:07.152Z,7.32
2023-04-16T13:56:52.205Z,7.68
2023-04-16T13:59:37.652Z,6.90
2023-04-16T14:02:22.762Z,6.45
2023-04-16T14:05:08.406Z,6.15
2023-04-16T14:07:55.954Z,6.20
2023-04-16T14:10:41.363Z,6.03
2023-04-16T14:13:27.002Z,6.03
2023-04-16T14:16:12.086Z,5.07
2023-04-16T14:18:57.050Z,5.10
2023-04-16T14:21:42.369Z,6.10
2023-04-16T14:24:27.804Z,4.82
2023-04-16T14:27:13.553Z,4.72
2023-04-16T14:29:58.687Z,4.88
2023-04-16T14:32:46.080Z,5.20
2023-04-16T14:35:34.624Z,5.80
2023-04-16T14:38:19.820Z,5.53
2023-04-16T14:41:05.229Z,5.13
2023-04-16T14:43:50.904Z,6.13
2023-04-16T14:46:36.056Z,5.90
2023-04-16T14:49:21.761Z,6.10
2023-04-16T14:52:07.037Z,7.10
2023-04-16T14:54:55.048Z,7.07
2023-04-16T14:57:41.534Z,6.80
2023-04-16T15:00:27.770Z,6.15
2023-04-16T15:03:12.752Z,5.40
2023-04-16T15:05:59.361Z,5.97
2023-04-16T15:08:46.092Z,6.68
2023-04-16T15:11:38.841Z,7.10
2023-04-16T15:14:24.323Z,6.65
2023-04-16T15:17:09.825Z,6.68
2023-04-16T15:19:55.668Z,7.15
2023-04-16T15:22:40.677Z,8.18
2023-04-16T15:25:25.742Z,7.15
2023-04-16T15:28:12.404Z,7.25
2023-04-16T15:31:00.451Z,6.50
2023-04-16T15:33:45.546Z,7.10
2023-04-16T15:36:31.638Z,7.65
2023-04-16T15:39:18.039Z,7.55
2023-04-16T15:42:08.010Z,7.10
2023-04-16T15:44:54.870Z,7.35
2023-04-16T15:47:41.855Z,6.88
2023-04-16T15:50:27.691Z,7.80
2023-04-16T15:53:13.049Z,7.28
2023-04-16T15:55:58.370Z,6.47
2023-04-16T15:58:44.226Z,7.18
2023-04-16T16:01:31.262Z,7.63
2023-04-16T16:04:16.750Z,7.22
2023-04-16T16:07:05.808Z,6.97
2023-04-16T16:09:54.367Z,7.60
2023-04-16T16:12:40.738Z,7.25
2023-04-16T16:15:25.727Z,6.30
2023-04-16T16:18:11.013Z,7.30
2023-04-16T16:20:57.734Z,7.13
2023-04-16T16:23:42.805Z,7.20
2023-04-16T16:26:28.099Z,6.93
2023-04-16T16:29:14.724Z,8.20
2023-04-16T16:32:01.253Z,7.80
2023-04-16T16:34:46.507Z,7.70
2023-04-16T16:37:31.469Z,7.60
2023-04-16T16:40:16.334Z,7.25
2023-04-16T16:43:03.477Z,7.78
2023-04-16T16:45:51.196Z,7.95
2023-04-16T16:48:37.313Z,8.35
2023-04-16T16:51:24.582Z,8.00
2023-04-16T16:56:56.513Z,7.28
2023-04-16T16:59:42.567Z,8.10
2023-04-16T17:02:27.972Z,7.15
2023-04-16T17:05:12.893Z,7.90
2023-04-16T17:07:58.024Z,7.72
2023-04-16T17:10:43.650Z,8.50
2023-04-16T17:13:29.982Z,9.27
2023-04-16T17:16:17.486Z,9.48
2023-04-16T17:19:02.473Z,9.50
2023-04-16T17:21:47.566Z,9.18
2023-04-16T17:24:32.604Z,8.80
2023-04-16T17:27:18.209Z,9.32
2023-04-16T17:30:05.717Z,9.32
2023-04-16T17:32:51.139Z,9.40
2023-04-16T17:35:40.880Z,9.15
2023-04-16T17:38:26.180Z,8.77
2023-04-16T17:41:14.262Z,9.20
2023-04-16T17:43:59.415Z,9.02
2023-04-16T17:46:46.786Z,8.80
2023-04-16T17:49:31.752Z,8.80
2023-04-16T17:52:16.571Z,8.57
2023-04-16T17:55:03.685Z,8.75
2023-04-16T17:57:48.874Z,10.02
2023-04-16T18:00:36.549Z,9.50
2023-04-16T18:03:23.304Z,8.38
2023-04-16T18:06:10.046Z,8.35
2023-04-16T18:08:57.344Z,8.02
2023-04-16T18:11:42.521Z,8.95
2023-04-16T18:14:28.320Z,8.63
2023-04-16T18:17:13.411Z,8.38
2023-04-16T18:19:59.266Z,8.55
2023-04-16T18:22:44.376Z,7.50
2023-04-16T18:25:34.665Z,9.15
2023-04-16T18:28:20.152Z,9.52
2023-04-16T18:31:06.860Z,9.82
2023-04-16T18:33:56.823Z,8.43
2023-04-16T18:36:44.460Z,9.73
2023-04-16T18:39:33.701Z,8.98
2023-04-16T18:42:18.882Z,8.40
2023-04-16T18:45:09.660Z,7.95
2023-04-16T18:47:58.819Z,9.00
2023-04-16T18:50:45.641Z,8.82
2023-04-16T18:53:31.198Z,8.52
2023-04-16T18:56:17.407Z,9.30
2023-04-16T18:59:03.793Z,8.25
2023-04-16T19:01:51.363Z,7.55
2023-04-16T19:04:38.149Z,8.60
2023-04-16T19:07:23.300Z,8.15
2023-04-16T19:10:09.322Z,8.30
2023-04-16T19:12:58.519Z,7.30
2023-04-16T19:15:44.104Z,9.10
2023-04-16T19:18:34.804Z,7.70
2023-04-16T19:21:20.214Z,8.02
2023-04-16T19:24:07.196Z,8.43
2023-04-16T19:26:53.597Z,8.82
2023-04-16T19:29:41.241Z,9.50
2023-04-16T19:32:26.532Z,8.23
2023-04-16T19:35:13.384Z,7.97
2023-04-16T19:37:58.525Z,8.15
2023-04-16T19:40:48.828Z,8.00
2023-04-16T19:43:35.301Z,7.55
2023-04-16T19:46:20.787Z,8.20
2023-04-16T19:49:05.883Z,8.20
2023-04-16T19:51:53.795Z,8.40
2023-04-16T19:54:39.003Z,8.20
2023-04-16T19:57:28.331Z,7.63
2023-04-16T20:00:13.993Z,8.82
2023-04-16T20:02:59.246Z,8.40
2023-04-16T20:05:44.651Z,8.10
2023-04-16T20:08:30.794Z,9.50
2023-04-16T20:11:18.230Z,8.18
2023-04-16T20:14:03.312Z,8.35
2023-04-16T20:16:54.522Z,8.15
2023-04-16T20:19:39.788Z,8.32
2023-04-16T20:22:26.970Z,9.05
2023-04-16T20:25:14.293Z,10.10
2023-04-16T20:28:00.189Z,9.07
2023-04-16T20:30:45.380Z,7.97
2023-04-16T20:33:30.588Z,9.18
2023-04-16T20:36:16.824Z,8.77
2023-04-16T20:39:02.236Z,8.80
2023-04-16T20:41:56.849Z,9.90
2023-04-16T20:44:42.422Z,9.05
2023-04-16T20:47:28.476Z,9.07
2023-04-16T20:50:13.603Z,8.98
2023-04-16T20:52:58.614Z,8.10
2023-04-16T20:55:46.088Z,8.32
2023-04-16T20:58:31.489Z,8.90
2023-04-16T21:01:18.223Z,8.88
2023-04-16T21:04:03.916Z,9.70
2023-04-16T21:06:53.574Z,9.32
2023-04-16T21:09:38.764Z,8.25
2023-04-16T21:12:23.652Z,8.75
2023-04-16T21:15:08.862Z,9.30
2023-04-16T21:17:53.712Z,8.35
2023-04-16T21:20:39.123Z,8.75
2023-04-16T21:23:24.002Z,9.32
2023-04-16T21:26:08.967Z,9.48
2023-04-16T21:28:55.138Z,8.75
2023-04-16T21:31:40.407Z,8.60
2023-04-16T21:34:26.222Z,9.10
2023-04-16T21:37:11.162Z,8.18
2023-04-16T21:39:56.009Z,9.57
2023-04-16T21:42:42.209Z,8.45
2023-04-16T21:45:28.862Z,8.18
2023-04-16T21:48:17.830Z,9.13
2023-04-16T21:51:06.588Z,9.02
2023-04-16T21:53:52.872Z,9.02
2023-04-16T21:56:37.787Z,9.00
2023-04-16T21:59:23.156Z,9.63
2023-04-16T22:02:09.329Z,9.20
2023-04-16T22:04:54.329Z,8.73
2023-04-16T22:07:39.494Z,9.55
2023-04-16T22:10:26.195Z,10.38
2023-04-16T22:13:13.662Z,10.10
2023-04-16T22:16:01.594Z,9.98
2023-04-16T22:18:47.251Z,9.80
2023-04-16T22:21:32.012Z,9.77
2023-04-16T22:24:16.978Z,9.65
2023-04-16T22:27:03.086Z,9.02
2023-04-16T22:29:48.254Z,9.93
2023-04-16T22:32:33.860Z,9.35
2023-04-16T22:35:18.779Z,9.35
2023-04-16T22:38:03.609Z,9.90
2023-04-16T22:40:48.877Z,9.20
2023-04-16T22:43:37.999Z,9.25
2023-04-16T22:46:24.604Z,9.25
2023-04-16T22:49:10.059Z,9.07
2023-04-16T22:51:55.436Z,9.38
2023-04-16T22:54:41.027Z,10.35
2023-04-16T22:57:26.079Z,10.68
2023-04-16T23:00:15.752Z,10.63
2023-04-16T23:03:01.182Z,9.68
2023-04-16T23:05:46.315Z,11.15
2023-04-16T23:08:31.307Z,9.90
2023-04-16T23:11:16.199Z,10.60
2023-04-16T23:14:03.309Z,10.57
2023-04-16T23:16:48.135Z,10.93
2023-04-16T23:19:33.115Z,11.18
2023-04-16T23:22:17.859Z,10.40
2023-04-16T23:25:02.654Z,10.63
2023-04-16T23:27:47.741Z,11.10
2023-04-16T23:30:33.666Z,10.80
2023-04-16T23:33:19.647Z,10.95
2023-04-16T23:36:05.512Z,10.50
2023-04-16T23:38:50.825Z,10.25
2023-04-16T23:41:35.669Z,12.15
2023-04-16T23:44:20.513Z,11.88
2023-04-16T23:47:05.716Z,12.35
2023-04-16T23:49:50.598Z,10.38
2023-04-16T23:52:35.625Z,9.68
2023-04-16T23:55:21.360Z,10.10
2023-04-16T23:58:06.430Z,12.15
